North Vancouver, Canada
Current Conditions -  °F | °C
As of 3:00 AM on Thursday 23 Oct 2014 (Local Time) from CYVR Reporting Station
Broken Clouds Broken Clouds  
Wind Chill: 50°   Ceiling: 16000
Heat Index: 50°   Visibility: 15mi
Dew Point: 46°   Wind: 7mph
Humidity: 87%   Direction: 90°E
Pressure: 29.68"   Gusts: NA
Location:  49.32°N, 123.07°W
Report Text: CYVR 231000Z 09006KT 15SM FEW050 FEW100 BKN160 BKN230 10/08 A2968 RMK SC1AC1AC4CI1 SLP050
Loading
Personal Weather Stations






























Interactive Weather Map
Tropical Storm Tracking
New forecast layout! Learn more

10-Day Weather Forecast

Advertisements
Track Severe Weather on mobile